sensor_id;sensor_type;location;lat;lon;timestamp;P1;durP1;ratioP1;P2;durP2;ratioP2
54945;SDS011;40846;44.788;20.486;2024-02-21T00:01:06;29.08;;;15.68;;
54945;SDS011;40846;44.788;20.486;2024-02-21T00:03:32;28.05;;;15.30;;
54945;SDS011;40846;44.788;20.486;2024-02-21T00:05:58;24.13;;;14.15;;
54945;SDS011;40846;44.788;20.486;2024-02-21T00:08:24;25.40;;;14.40;;
54945;SDS011;40846;44.788;20.486;2024-02-21T00:10:50;29.27;;;14.70;;
54945;SDS011;40846;44.788;20.486;2024-02-21T00:13:16;24.10;;;13.07;;
54945;SDS011;40846;44.788;20.486;2024-02-21T00:15:42;21.70;;;12.48;;
54945;SDS011;40846;44.788;20.486;2024-02-21T00:18:08;25.70;;;14.43;;
54945;SDS011;40846;44.788;20.486;2024-02-21T00:20:36;42.25;;;23.38;;
54945;SDS011;40846;44.788;20.486;2024-02-21T00:23:02;29.13;;;16.13;;
54945;SDS011;40846;44.788;20.486;2024-02-21T00:25:28;31.30;;;15.73;;
54945;SDS011;40846;44.788;20.486;2024-02-21T00:27:54;38.78;;;18.63;;
54945;SDS011;40846;44.788;20.486;2024-02-21T00:30:20;32.95;;;18.38;;
54945;SDS011;40846;44.788;20.486;2024-02-21T00:32:47;27.92;;;16.17;;
54945;SDS011;40846;44.788;20.486;2024-02-21T00:35:13;25.00;;;14.32;;
54945;SDS011;40846;44.788;20.486;2024-02-21T00:37:39;23.73;;;12.90;;
54945;SDS011;40846;44.788;20.486;2024-02-21T00:40:06;26.70;;;13.88;;
54945;SDS011;40846;44.788;20.486;2024-02-21T00:42:32;30.02;;;15.63;;
54945;SDS011;40846;44.788;20.486;2024-02-21T00:44:58;24.15;;;15.07;;
54945;SDS011;40846;44.788;20.486;2024-02-21T00:47:24;24.33;;;14.70;;
54945;SDS011;40846;44.788;20.486;2024-02-21T00:49:50;32.85;;;19.00;;
54945;SDS011;40846;44.788;20.486;2024-02-21T00:52:16;32.88;;;17.90;;
54945;SDS011;40846;44.788;20.486;2024-02-21T00:54:43;27.25;;;15.65;;
54945;SDS011;40846;44.788;20.486;2024-02-21T00:57:09;27.00;;;16.50;;
54945;SDS011;40846;44.788;20.486;2024-02-21T00:59:35;45.50;;;24.77;;
54945;SDS011;40846;44.788;20.486;2024-02-21T01:02:01;29.75;;;17.27;;
54945;SDS011;40846;44.788;20.486;2024-02-21T01:04:27;50.20;;;24.10;;
54945;SDS011;40846;44.788;20.486;2024-02-21T01:06:53;27.13;;;16.40;;
54945;SDS011;40846;44.788;20.486;2024-02-21T01:09:19;31.45;;;16.17;;
54945;SDS011;40846;44.788;20.486;2024-02-21T01:11:45;41.80;;;20.23;;
54945;SDS011;40846;44.788;20.486;2024-02-21T01:14:11;40.50;;;21.42;;
54945;SDS011;40846;44.788;20.486;2024-02-21T01:16:38;36.40;;;18.60;;
54945;SDS011;40846;44.788;20.486;2024-02-21T01:19:04;28.10;;;17.27;;
54945;SDS011;40846;44.788;20.486;2024-02-21T01:21:30;30.42;;;17.73;;
54945;SDS011;40846;44.788;20.486;2024-02-21T01:23:56;37.17;;;20.90;;
54945;SDS011;40846;44.788;20.486;2024-02-21T01:26:22;33.90;;;19.48;;
54945;SDS011;40846;44.788;20.486;2024-02-21T01:28:48;42.72;;;22.90;;
54945;SDS011;40846;44.788;20.486;2024-02-21T01:31:14;40.55;;;21.85;;
54945;SDS011;40846;44.788;20.486;2024-02-21T01:33:40;31.50;;;18.15;;
54945;SDS011;40846;44.788;20.486;2024-02-21T01:36:07;33.45;;;18.10;;
54945;SDS011;40846;44.788;20.486;2024-02-21T01:38:34;31.58;;;17.63;;
54945;SDS011;40846;44.788;20.486;2024-02-21T01:41:00;39.00;;;21.42;;
54945;SDS011;40846;44.788;20.486;2024-02-21T01:43:26;37.33;;;17.80;;
54945;SDS011;40846;44.788;20.486;2024-02-21T01:45:53;40.88;;;21.58;;
54945;SDS011;40846;44.788;20.486;2024-02-21T01:48:19;28.73;;;17.00;;
54945;SDS011;40846;44.788;20.486;2024-02-21T01:50:47;29.30;;;17.83;;
54945;SDS011;40846;44.788;20.486;2024-02-21T01:53:25;35.60;;;19.35;;
54945;SDS011;40846;44.788;20.486;2024-02-21T01:55:53;33.47;;;18.23;;
54945;SDS011;40846;44.788;20.486;2024-02-21T01:58:20;32.70;;;17.30;;
54945;SDS011;40846;44.788;20.486;2024-02-21T02:00:46;29.83;;;18.85;;
54945;SDS011;40846;44.788;20.486;2024-02-21T02:03:13;35.90;;;20.75;;
54945;SDS011;40846;44.788;20.486;2024-02-21T02:05:42;34.95;;;19.50;;
54945;SDS011;40846;44.788;20.486;2024-02-21T02:08:09;26.00;;;18.23;;
54945;SDS011;40846;44.788;20.486;2024-02-21T02:10:36;34.08;;;18.50;;
54945;SDS011;40846;44.788;20.486;2024-02-21T02:13:03;31.77;;;18.85;;
54945;SDS011;40846;44.788;20.486;2024-02-21T02:15:37;37.08;;;19.95;;
54945;SDS011;40846;44.788;20.486;2024-02-21T02:18:03;37.33;;;20.67;;
54945;SDS011;40846;44.788;20.486;2024-02-21T02:20:29;37.55;;;22.52;;
54945;SDS011;40846;44.788;20.486;2024-02-21T02:22:55;32.60;;;19.23;;
54945;SDS011;40846;44.788;20.486;2024-02-21T02:25:22;29.23;;;17.45;;
54945;SDS011;40846;44.788;20.486;2024-02-21T02:27:48;31.00;;;18.52;;
54945;SDS011;40846;44.788;20.486;2024-02-21T02:30:14;29.75;;;18.08;;
54945;SDS011;40846;44.788;20.486;2024-02-21T02:32:43;30.48;;;18.17;;
54945;SDS011;40846;44.788;20.486;2024-02-21T02:35:10;32.47;;;17.92;;
54945;SDS011;40846;44.788;20.486;2024-02-21T02:37:36;35.00;;;17.75;;
54945;SDS011;40846;44.788;20.486;2024-02-21T02:40:04;28.70;;;17.98;;
54945;SDS011;40846;44.788;20.486;2024-02-21T02:42:30;30.92;;;18.73;;
54945;SDS011;40846;44.788;20.486;2024-02-21T02:44:56;32.30;;;19.27;;
54945;SDS011;40846;44.788;20.486;2024-02-21T02:47:22;45.60;;;26.13;;
54945;SDS011;40846;44.788;20.486;2024-02-21T02:49:49;35.00;;;20.05;;
54945;SDS011;40846;44.788;20.486;2024-02-21T02:52:18;27.77;;;16.63;;
54945;SDS011;40846;44.788;20.486;2024-02-21T02:54:44;28.92;;;17.90;;
54945;SDS011;40846;44.788;20.486;2024-02-21T02:57:11;32.30;;;17.38;;
54945;SDS011;40846;44.788;20.486;2024-02-21T02:59:37;37.45;;;21.95;;
54945;SDS011;40846;44.788;20.486;2024-02-21T03:02:03;29.73;;;18.13;;
54945;SDS011;40846;44.788;20.486;2024-02-21T03:04:29;36.47;;;16.75;;
54945;SDS011;40846;44.788;20.486;2024-02-21T03:06:55;38.70;;;18.35;;
54945;SDS011;40846;44.788;20.486;2024-02-21T03:09:21;39.72;;;19.27;;
54945;SDS011;40846;44.788;20.486;2024-02-21T03:11:48;31.30;;;19.02;;
54945;SDS011;40846;44.788;20.486;2024-02-21T03:14:14;32.53;;;18.02;;
54945;SDS011;40846;44.788;20.486;2024-02-21T03:16:40;33.17;;;17.63;;
54945;SDS011;40846;44.788;20.486;2024-02-21T03:19:06;29.15;;;17.27;;
54945;SDS011;40846;44.788;20.486;2024-02-21T03:21:32;33.90;;;17.30;;
54945;SDS011;40846;44.788;20.486;2024-02-21T03:23:58;31.80;;;19.73;;
54945;SDS011;40846;44.788;20.486;2024-02-21T03:26:24;30.10;;;17.48;;
54945;SDS011;40846;44.788;20.486;2024-02-21T03:28:50;29.55;;;16.92;;
54945;SDS011;40846;44.788;20.486;2024-02-21T03:31:16;33.00;;;19.27;;
54945;SDS011;40846;44.788;20.486;2024-02-21T03:33:42;50.25;;;24.30;;
54945;SDS011;40846;44.788;20.486;2024-02-21T03:36:15;33.63;;;19.25;;
54945;SDS011;40846;44.788;20.486;2024-02-21T03:41:07;36.45;;;17.98;;
54945;SDS011;40846;44.788;20.486;2024-02-21T03:43:33;28.70;;;16.48;;
54945;SDS011;40846;44.788;20.486;2024-02-21T03:45:59;31.63;;;16.63;;
54945;SDS011;40846;44.788;20.486;2024-02-21T03:48:26;41.33;;;20.80;;
54945;SDS011;40846;44.788;20.486;2024-02-21T03:50:52;30.05;;;17.33;;
54945;SDS011;40846;44.788;20.486;2024-02-21T03:53:18;32.45;;;18.92;;
54945;SDS011;40846;44.788;20.486;2024-02-21T03:55:44;33.72;;;19.00;;
54945;SDS011;40846;44.788;20.486;2024-02-21T03:58:10;37.38;;;22.48;;
54945;SDS011;40846;44.788;20.486;2024-02-21T04:00:36;51.60;;;27.05;;
54945;SDS011;40846;44.788;20.486;2024-02-21T04:03:04;38.33;;;21.58;;
54945;SDS011;40846;44.788;20.486;2024-02-21T04:05:31;29.40;;;17.08;;
54945;SDS011;40846;44.788;20.486;2024-02-21T04:07:58;41.65;;;19.27;;
54945;SDS011;40846;44.788;20.486;2024-02-21T04:10:24;29.15;;;16.63;;
54945;SDS011;40846;44.788;20.486;2024-02-21T04:12:50;32.78;;;17.00;;
54945;SDS011;40846;44.788;20.486;2024-02-21T04:15:16;40.83;;;19.23;;
54945;SDS011;40846;44.788;20.486;2024-02-21T04:17:43;26.48;;;17.23;;
54945;SDS011;40846;44.788;20.486;2024-02-21T04:20:13;37.30;;;18.02;;
54945;SDS011;40846;44.788;20.486;2024-02-21T04:22:40;35.15;;;17.00;;
54945;SDS011;40846;44.788;20.486;2024-02-21T04:25:06;31.92;;;17.00;;
54945;SDS011;40846;44.788;20.486;2024-02-21T04:27:32;31.00;;;18.05;;
54945;SDS011;40846;44.788;20.486;2024-02-21T04:29:58;30.90;;;17.45;;
54945;SDS011;40846;44.788;20.486;2024-02-21T04:32:24;29.25;;;17.77;;
54945;SDS011;40846;44.788;20.486;2024-02-21T04:34:52;31.65;;;17.63;;
54945;SDS011;40846;44.788;20.486;2024-02-21T04:37:18;22.63;;;15.00;;
54945;SDS011;40846;44.788;20.486;2024-02-21T04:39:44;25.70;;;15.75;;
54945;SDS011;40846;44.788;20.486;2024-02-21T04:42:10;23.70;;;14.85;;
54945;SDS011;40846;44.788;20.486;2024-02-21T04:44:37;26.20;;;15.73;;
54945;SDS011;40846;44.788;20.486;2024-02-21T04:47:03;29.55;;;17.05;;
54945;SDS011;40846;44.788;20.486;2024-02-21T04:49:29;34.60;;;16.42;;
54945;SDS011;40846;44.788;20.486;2024-02-21T04:51:56;29.92;;;15.68;;
54945;SDS011;40846;44.788;20.486;2024-02-21T04:54:22;25.65;;;15.60;;
54945;SDS011;40846;44.788;20.486;2024-02-21T04:56:48;29.02;;;15.60;;
54945;SDS011;40846;44.788;20.486;2024-02-21T04:59:14;36.65;;;19.70;;
54945;SDS011;40846;44.788;20.486;2024-02-21T05:01:40;33.38;;;18.75;;
54945;SDS011;40846;44.788;20.486;2024-02-21T05:04:06;31.10;;;19.02;;
54945;SDS011;40846;44.788;20.486;2024-02-21T05:06:36;28.00;;;16.73;;
54945;SDS011;40846;44.788;20.486;2024-02-21T05:09:02;34.90;;;20.42;;
54945;SDS011;40846;44.788;20.486;2024-02-21T05:11:29;31.85;;;16.40;;
54945;SDS011;40846;44.788;20.486;2024-02-21T05:13:55;27.35;;;17.67;;
54945;SDS011;40846;44.788;20.486;2024-02-21T05:16:22;25.90;;;15.57;;
54945;SDS011;40846;44.788;20.486;2024-02-21T05:18:48;25.15;;;16.33;;
54945;SDS011;40846;44.788;20.486;2024-02-21T05:21:14;26.70;;;15.48;;
54945;SDS011;40846;44.788;20.486;2024-02-21T05:23:40;27.33;;;16.40;;
54945;SDS011;40846;44.788;20.486;2024-02-21T05:26:06;24.73;;;15.23;;
54945;SDS011;40846;44.788;20.486;2024-02-21T05:28:33;24.92;;;15.13;;
54945;SDS011;40846;44.788;20.486;2024-02-21T05:30:59;22.27;;;13.80;;
54945;SDS011;40846;44.788;20.486;2024-02-21T05:33:25;25.00;;;14.80;;
54945;SDS011;40846;44.788;20.486;2024-02-21T05:35:51;26.52;;;15.45;;
54945;SDS011;40846;44.788;20.486;2024-02-21T05:38:18;29.98;;;15.85;;
54945;SDS011;40846;44.788;20.486;2024-02-21T05:40:44;24.42;;;14.35;;
54945;SDS011;40846;44.788;20.486;2024-02-21T05:43:10;22.52;;;14.52;;
54945;SDS011;40846;44.788;20.486;2024-02-21T05:45:36;29.13;;;14.82;;
54945;SDS011;40846;44.788;20.486;2024-02-21T05:48:03;23.95;;;13.93;;
54945;SDS011;40846;44.788;20.486;2024-02-21T05:50:30;23.98;;;14.23;;
54945;SDS011;40846;44.788;20.486;2024-02-21T05:52:57;29.50;;;15.25;;
54945;SDS011;40846;44.788;20.486;2024-02-21T05:55:23;26.52;;;13.73;;
54945;SDS011;40846;44.788;20.486;2024-02-21T05:57:53;22.30;;;13.45;;
54945;SDS011;40846;44.788;20.486;2024-02-21T06:00:20;26.17;;;14.15;;
54945;SDS011;40846;44.788;20.486;2024-02-21T06:02:46;35.15;;;13.07;;
54945;SDS011;40846;44.788;20.486;2024-02-21T06:05:12;26.90;;;13.43;;
54945;SDS011;40846;44.788;20.486;2024-02-21T06:07:38;19.27;;;12.00;;
54945;SDS011;40846;44.788;20.486;2024-02-21T06:10:04;23.98;;;13.82;;
54945;SDS011;40846;44.788;20.486;2024-02-21T06:12:31;22.48;;;14.18;;
54945;SDS011;40846;44.788;20.486;2024-02-21T06:14:57;25.45;;;12.90;;
54945;SDS011;40846;44.788;20.486;2024-02-21T06:17:23;21.15;;;12.70;;
54945;SDS011;40846;44.788;20.486;2024-02-21T06:19:49;31.13;;;12.70;;
54945;SDS011;40846;44.788;20.486;2024-02-21T06:22:15;22.58;;;12.50;;
54945;SDS011;40846;44.788;20.486;2024-02-21T06:24:41;23.58;;;12.93;;
54945;SDS011;40846;44.788;20.486;2024-02-21T06:27:07;18.55;;;11.45;;
54945;SDS011;40846;44.788;20.486;2024-02-21T06:29:34;26.33;;;12.23;;
54945;SDS011;40846;44.788;20.486;2024-02-21T06:32:00;23.50;;;11.85;;
54945;SDS011;40846;44.788;20.486;2024-02-21T06:34:26;22.52;;;11.25;;
54945;SDS011;40846;44.788;20.486;2024-02-21T06:36:52;19.77;;;10.32;;
54945;SDS011;40846;44.788;20.486;2024-02-21T06:39:19;20.80;;;10.95;;
54945;SDS011;40846;44.788;20.486;2024-02-21T06:41:45;20.75;;;11.15;;
54945;SDS011;40846;44.788;20.486;2024-02-21T06:44:12;20.10;;;10.18;;
54945;SDS011;40846;44.788;20.486;2024-02-21T06:46:39;21.40;;;10.60;;
54945;SDS011;40846;44.788;20.486;2024-02-21T06:49:05;24.30;;;9.10;;
54945;SDS011;40846;44.788;20.486;2024-02-21T06:51:31;20.83;;;10.88;;
54945;SDS011;40846;44.788;20.486;2024-02-21T06:53:58;19.38;;;9.77;;
54945;SDS011;40846;44.788;20.486;2024-02-21T06:56:24;16.98;;;9.68;;
54945;SDS011;40846;44.788;20.486;2024-02-21T06:58:57;15.38;;;8.70;;
54945;SDS011;40846;44.788;20.486;2024-02-21T07:01:26;15.90;;;9.52;;
54945;SDS011;40846;44.788;20.486;2024-02-21T07:03:55;19.35;;;10.75;;
54945;SDS011;40846;44.788;20.486;2024-02-21T07:06:22;21.92;;;10.43;;
54945;SDS011;40846;44.788;20.486;2024-02-21T07:08:48;18.30;;;9.43;;
54945;SDS011;40846;44.788;20.486;2024-02-21T07:11:14;18.23;;;10.55;;
54945;SDS011;40846;44.788;20.486;2024-02-21T07:13:40;20.50;;;10.40;;
54945;SDS011;40846;44.788;20.486;2024-02-21T07:16:07;43.20;;;29.02;;
54945;SDS011;40846;44.788;20.486;2024-02-21T07:18:33;33.70;;;16.83;;
54945;SDS011;40846;44.788;20.486;2024-02-21T07:21:00;23.00;;;10.40;;
54945;SDS011;40846;44.788;20.486;2024-02-21T07:23:26;27.58;;;11.73;;
54945;SDS011;40846;44.788;20.486;2024-02-21T07:25:52;22.48;;;10.52;;
54945;SDS011;40846;44.788;20.486;2024-02-21T07:28:18;17.15;;;9.90;;
54945;SDS011;40846;44.788;20.486;2024-02-21T07:30:44;21.23;;;10.25;;
54945;SDS011;40846;44.788;20.486;2024-02-21T07:33:10;21.95;;;9.80;;
54945;SDS011;40846;44.788;20.486;2024-02-21T07:35:36;25.20;;;11.02;;
54945;SDS011;40846;44.788;20.486;2024-02-21T07:38:06;22.30;;;10.30;;
54945;SDS011;40846;44.788;20.486;2024-02-21T07:40:33;17.20;;;9.38;;
54945;SDS011;40846;44.788;20.486;2024-02-21T07:42:59;19.90;;;9.73;;
54945;SDS011;40846;44.788;20.486;2024-02-21T07:45:25;22.48;;;9.55;;
54945;SDS011;40846;44.788;20.486;2024-02-21T07:47:51;18.42;;;11.02;;
54945;SDS011;40846;44.788;20.486;2024-02-21T07:50:17;28.33;;;17.73;;
54945;SDS011;40846;44.788;20.486;2024-02-21T07:52:43;17.58;;;9.60;;
54945;SDS011;40846;44.788;20.486;2024-02-21T07:55:09;18.60;;;9.82;;
54945;SDS011;40846;44.788;20.486;2024-02-21T07:57:36;17.58;;;9.48;;
54945;SDS011;40846;44.788;20.486;2024-02-21T08:00:02;19.20;;;10.25;;
54945;SDS011;40846;44.788;20.486;2024-02-21T08:02:34;109.40;;;43.13;;
54945;SDS011;40846;44.788;20.486;2024-02-21T08:05:01;54.35;;;21.33;;
54945;SDS011;40846;44.788;20.486;2024-02-21T08:07:28;21.02;;;11.27;;
54945;SDS011;40846;44.788;20.486;2024-02-21T08:09:56;31.27;;;14.23;;
54945;SDS011;40846;44.788;20.486;2024-02-21T08:12:22;37.58;;;21.35;;
54945;SDS011;40846;44.788;20.486;2024-02-21T08:14:48;26.25;;;10.88;;
54945;SDS011;40846;44.788;20.486;2024-02-21T08:17:14;19.15;;;10.63;;
54945;SDS011;40846;44.788;20.486;2024-02-21T08:19:40;20.23;;;10.65;;
54945;SDS011;40846;44.788;20.486;2024-02-21T08:22:06;38.38;;;19.23;;
54945;SDS011;40846;44.788;20.486;2024-02-21T08:24:32;37.33;;;21.05;;
54945;SDS011;40846;44.788;20.486;2024-02-21T08:26:58;27.95;;;14.70;;
54945;SDS011;40846;44.788;20.486;2024-02-21T08:29:24;30.38;;;15.48;;
54945;SDS011;40846;44.788;20.486;2024-02-21T08:31:50;32.30;;;15.95;;
54945;SDS011;40846;44.788;20.486;2024-02-21T08:34:17;19.45;;;11.25;;
54945;SDS011;40846;44.788;20.486;2024-02-21T08:36:43;34.95;;;17.80;;
54945;SDS011;40846;44.788;20.486;2024-02-21T08:39:09;38.50;;;22.02;;
54945;SDS011;40846;44.788;20.486;2024-02-21T08:41:36;28.83;;;15.07;;
54945;SDS011;40846;44.788;20.486;2024-02-21T08:44:02;16.67;;;9.05;;
54945;SDS011;40846;44.788;20.486;2024-02-21T08:46:28;13.27;;;7.13;;
54945;SDS011;40846;44.788;20.486;2024-02-21T08:48:54;15.60;;;8.40;;
54945;SDS011;40846;44.788;20.486;2024-02-21T08:51:20;22.00;;;13.23;;
54945;SDS011;40846;44.788;20.486;2024-02-21T08:53:47;18.95;;;8.98;;
54945;SDS011;40846;44.788;20.486;2024-02-21T08:56:14;14.88;;;7.53;;
54945;SDS011;40846;44.788;20.486;2024-02-21T08:58:40;23.25;;;7.78;;
54945;SDS011;40846;44.788;20.486;2024-02-21T09:01:06;19.92;;;7.88;;
54945;SDS011;40846;44.788;20.486;2024-02-21T09:03:39;15.38;;;8.02;;
54945;SDS011;40846;44.788;20.486;2024-02-21T09:06:05;17.95;;;10.55;;
54945;SDS011;40846;44.788;20.486;2024-02-21T09:08:32;19.13;;;8.20;;
54945;SDS011;40846;44.788;20.486;2024-02-21T09:10:59;18.30;;;8.48;;
54945;SDS011;40846;44.788;20.486;2024-02-21T09:13:26;17.90;;;9.80;;
54945;SDS011;40846;44.788;20.486;2024-02-21T09:15:52;16.35;;;8.30;;
54945;SDS011;40846;44.788;20.486;2024-02-21T09:18:18;17.40;;;10.57;;
54945;SDS011;40846;44.788;20.486;2024-02-21T09:20:44;15.57;;;6.57;;
54945;SDS011;40846;44.788;20.486;2024-02-21T09:23:10;11.75;;;6.72;;
54945;SDS011;40846;44.788;20.486;2024-02-21T09:25:37;12.30;;;7.10;;
54945;SDS011;40846;44.788;20.486;2024-02-21T09:28:03;17.67;;;7.15;;
54945;SDS011;40846;44.788;20.486;2024-02-21T09:30:31;19.67;;;6.28;;
54945;SDS011;40846;44.788;20.486;2024-02-21T09:32:57;13.25;;;6.53;;
54945;SDS011;40846;44.788;20.486;2024-02-21T09:35:27;15.05;;;7.20;;
54945;SDS011;40846;44.788;20.486;2024-02-21T09:37:54;21.48;;;7.03;;
54945;SDS011;40846;44.788;20.486;2024-02-21T09:40:20;13.27;;;6.38;;
54945;SDS011;40846;44.788;20.486;2024-02-21T09:42:47;12.68;;;6.50;;
54945;SDS011;40846;44.788;20.486;2024-02-21T09:45:20;17.38;;;7.13;;
54945;SDS011;40846;44.788;20.486;2024-02-21T09:48:04;12.18;;;6.40;;
54945;SDS011;40846;44.788;20.486;2024-02-21T09:50:33;11.63;;;6.20;;
54945;SDS011;40846;44.788;20.486;2024-02-21T09:53:01;19.13;;;7.07;;
54945;SDS011;40846;44.788;20.486;2024-02-21T09:55:29;12.45;;;6.53;;
54945;SDS011;40846;44.788;20.486;2024-02-21T09:57:57;15.18;;;6.15;;
54945;SDS011;40846;44.788;20.486;2024-02-21T10:00:23;15.15;;;7.20;;
54945;SDS011;40846;44.788;20.486;2024-02-21T10:02:50;15.38;;;6.97;;
54945;SDS011;40846;44.788;20.486;2024-02-21T10:05:16;19.83;;;7.40;;
54945;SDS011;40846;44.788;20.486;2024-02-21T10:07:45;15.73;;;6.47;;
54945;SDS011;40846;44.788;20.486;2024-02-21T10:10:11;15.57;;;7.05;;
54945;SDS011;40846;44.788;20.486;2024-02-21T10:12:47;15.23;;;5.93;;
54945;SDS011;40846;44.788;20.486;2024-02-21T10:15:14;15.50;;;5.82;;
54945;SDS011;40846;44.788;20.486;2024-02-21T10:17:45;10.57;;;5.18;;
54945;SDS011;40846;44.788;20.486;2024-02-21T10:20:11;17.02;;;6.00;;
54945;SDS011;40846;44.788;20.486;2024-02-21T10:22:39;12.82;;;5.80;;
54945;SDS011;40846;44.788;20.486;2024-02-21T10:27:34;12.90;;;5.63;;
54945;SDS011;40846;44.788;20.486;2024-02-21T10:30:00;63.22;;;31.75;;
54945;SDS011;40846;44.788;20.486;2024-02-21T10:32:27;106.78;;;47.92;;
54945;SDS011;40846;44.788;20.486;2024-02-21T10:35:01;44.00;;;22.95;;
54945;SDS011;40846;44.788;20.486;2024-02-21T10:37:29;18.98;;;10.13;;
54945;SDS011;40846;44.788;20.486;2024-02-21T10:39:56;15.95;;;7.65;;
54945;SDS011;40846;44.788;20.486;2024-02-21T10:42:28;12.13;;;5.78;;
54945;SDS011;40846;44.788;20.486;2024-02-21T10:44:56;20.05;;;7.72;;
54945;SDS011;40846;44.788;20.486;2024-02-21T10:47:26;14.60;;;5.63;;
54945;SDS011;40846;44.788;20.486;2024-02-21T10:49:57;15.43;;;7.13;;
54945;SDS011;40846;44.788;20.486;2024-02-21T10:52:42;12.00;;;5.97;;
54945;SDS011;40846;44.788;20.486;2024-02-21T10:55:15;17.33;;;6.95;;
54945;SDS011;40846;44.788;20.486;2024-02-21T10:57:42;21.10;;;5.50;;
54945;SDS011;40846;44.788;20.486;2024-02-21T11:00:09;16.00;;;6.45;;
54945;SDS011;40846;44.788;20.486;2024-02-21T11:02:37;14.07;;;6.30;;
54945;SDS011;40846;44.788;20.486;2024-02-21T11:05:04;12.32;;;6.38;;
54945;SDS011;40846;44.788;20.486;2024-02-21T11:07:31;16.17;;;5.60;;
54945;SDS011;40846;44.788;20.486;2024-02-21T11:09:57;15.68;;;5.68;;
54945;SDS011;40846;44.788;20.486;2024-02-21T11:12:25;13.65;;;5.15;;
54945;SDS011;40846;44.788;20.486;2024-02-21T11:14:52;17.17;;;6.13;;
54945;SDS011;40846;44.788;20.486;2024-02-21T11:17:19;18.15;;;6.30;;
54945;SDS011;40846;44.788;20.486;2024-02-21T11:19:51;16.67;;;6.05;;
54945;SDS011;40846;44.788;20.486;2024-02-21T11:22:18;18.10;;;5.47;;
54945;SDS011;40846;44.788;20.486;2024-02-21T11:24:44;15.50;;;5.80;;
54945;SDS011;40846;44.788;20.486;2024-02-21T11:27:20;12.45;;;4.68;;
54945;SDS011;40846;44.788;20.486;2024-02-21T11:29:47;14.52;;;5.05;;
54945;SDS011;40846;44.788;20.486;2024-02-21T11:32:17;16.92;;;5.45;;
54945;SDS011;40846;44.788;20.486;2024-02-21T11:34:58;13.45;;;5.28;;
54945;SDS011;40846;44.788;20.486;2024-02-21T11:37:29;20.55;;;5.70;;
54945;SDS011;40846;44.788;20.486;2024-02-21T11:39:55;12.85;;;5.40;;
54945;SDS011;40846;44.788;20.486;2024-02-21T11:42:21;13.38;;;5.25;;
54945;SDS011;40846;44.788;20.486;2024-02-21T11:44:47;21.75;;;5.93;;
54945;SDS011;40846;44.788;20.486;2024-02-21T11:47:14;9.55;;;4.50;;
54945;SDS011;40846;44.788;20.486;2024-02-21T11:49:46;14.48;;;5.68;;
54945;SDS011;40846;44.788;20.486;2024-02-21T11:52:15;18.25;;;6.05;;
54945;SDS011;40846;44.788;20.486;2024-02-21T11:54:43;11.52;;;4.60;;
54945;SDS011;40846;44.788;20.486;2024-02-21T11:57:10;11.75;;;5.25;;
54945;SDS011;40846;44.788;20.486;2024-02-21T11:59:36;19.45;;;6.35;;
54945;SDS011;40846;44.788;20.486;2024-02-21T12:02:03;11.60;;;4.13;;
54945;SDS011;40846;44.788;20.486;2024-02-21T12:04:30;14.20;;;4.70;;
54945;SDS011;40846;44.788;20.486;2024-02-21T12:06:56;16.95;;;4.72;;
54945;SDS011;40846;44.788;20.486;2024-02-21T12:09:23;13.35;;;4.95;;
54945;SDS011;40846;44.788;20.486;2024-02-21T12:11:57;12.07;;;5.45;;
54945;SDS011;40846;44.788;20.486;2024-02-21T12:14:24;14.50;;;5.45;;
54945;SDS011;40846;44.788;20.486;2024-02-21T12:16:50;15.40;;;5.38;;
54945;SDS011;40846;44.788;20.486;2024-02-21T12:19:16;13.05;;;4.95;;
54945;SDS011;40846;44.788;20.486;2024-02-21T12:21:42;12.68;;;5.85;;
54945;SDS011;40846;44.788;20.486;2024-02-21T12:24:13;17.25;;;5.78;;
54945;SDS011;40846;44.788;20.486;2024-02-21T12:26:40;12.00;;;4.50;;
54945;SDS011;40846;44.788;20.486;2024-02-21T12:29:06;18.13;;;5.43;;
54945;SDS011;40846;44.788;20.486;2024-02-21T12:31:35;30.77;;;6.47;;
54945;SDS011;40846;44.788;20.486;2024-02-21T12:34:01;12.10;;;4.47;;
54945;SDS011;40846;44.788;20.486;2024-02-21T12:36:27;12.85;;;5.38;;
54945;SDS011;40846;44.788;20.486;2024-02-21T12:38:53;14.48;;;6.28;;
54945;SDS011;40846;44.788;20.486;2024-02-21T12:41:19;13.00;;;5.03;;
54945;SDS011;40846;44.788;20.486;2024-02-21T12:43:46;10.38;;;4.53;;
54945;SDS011;40846;44.788;20.486;2024-02-21T12:46:12;15.82;;;5.28;;
54945;SDS011;40846;44.788;20.486;2024-02-21T12:48:38;13.30;;;5.07;;
54945;SDS011;40846;44.788;20.486;2024-02-21T12:51:05;16.55;;;5.30;;
54945;SDS011;40846;44.788;20.486;2024-02-21T12:53:31;16.02;;;5.90;;
54945;SDS011;40846;44.788;20.486;2024-02-21T12:55:57;15.65;;;6.22;;
54945;SDS011;40846;44.788;20.486;2024-02-21T12:58:23;24.73;;;7.85;;
54945;SDS011;40846;44.788;20.486;2024-02-21T13:00:49;12.63;;;6.47;;
54945;SDS011;40846;44.788;20.486;2024-02-21T13:03:15;13.63;;;6.25;;
54945;SDS011;40846;44.788;20.486;2024-02-21T13:05:42;17.05;;;8.23;;
54945;SDS011;40846;44.788;20.486;2024-02-21T13:08:11;15.57;;;6.88;;
54945;SDS011;40846;44.788;20.486;2024-02-21T13:10:37;27.38;;;7.47;;
54945;SDS011;40846;44.788;20.486;2024-02-21T13:13:03;18.85;;;6.93;;
54945;SDS011;40846;44.788;20.486;2024-02-21T13:15:29;17.48;;;6.50;;
54945;SDS011;40846;44.788;20.486;2024-02-21T13:17:58;18.70;;;6.53;;
54945;SDS011;40846;44.788;20.486;2024-02-21T13:20:25;17.15;;;7.18;;
54945;SDS011;40846;44.788;20.486;2024-02-21T13:22:51;13.52;;;6.43;;
54945;SDS011;40846;44.788;20.486;2024-02-21T13:25:17;15.25;;;6.50;;
54945;SDS011;40846;44.788;20.486;2024-02-21T13:27:46;10.55;;;5.15;;
54945;SDS011;40846;44.788;20.486;2024-02-21T13:30:12;17.90;;;5.38;;
54945;SDS011;40846;44.788;20.486;2024-02-21T13:32:41;13.57;;;5.68;;
54945;SDS011;40846;44.788;20.486;2024-02-21T13:35:07;14.25;;;5.05;;
54945;SDS011;40846;44.788;20.486;2024-02-21T13:37:33;15.43;;;5.70;;
54945;SDS011;40846;44.788;20.486;2024-02-21T13:40:00;12.10;;;5.75;;
54945;SDS011;40846;44.788;20.486;2024-02-21T13:42:28;14.02;;;4.40;;
54945;SDS011;40846;44.788;20.486;2024-02-21T13:44:55;15.32;;;3.80;;
54945;SDS011;40846;44.788;20.486;2024-02-21T13:47:21;13.80;;;4.13;;
54945;SDS011;40846;44.788;20.486;2024-02-21T13:49:47;12.68;;;4.18;;
54945;SDS011;40846;44.788;20.486;2024-02-21T13:52:13;10.30;;;3.95;;
54945;SDS011;40846;44.788;20.486;2024-02-21T13:54:40;13.82;;;5.55;;
54945;SDS011;40846;44.788;20.486;2024-02-21T13:57:07;11.23;;;4.32;;
54945;SDS011;40846;44.788;20.486;2024-02-21T13:59:34;18.83;;;6.20;;
54945;SDS011;40846;44.788;20.486;2024-02-21T14:02:00;17.42;;;4.65;;
54945;SDS011;40846;44.788;20.486;2024-02-21T14:04:26;9.85;;;3.30;;
54945;SDS011;40846;44.788;20.486;2024-02-21T14:06:52;11.10;;;4.43;;
54945;SDS011;40846;44.788;20.486;2024-02-21T14:09:18;7.85;;;3.33;;
54945;SDS011;40846;44.788;20.486;2024-02-21T14:11:45;9.93;;;3.25;;
54945;SDS011;40846;44.788;20.486;2024-02-21T14:14:12;9.32;;;3.30;;
54945;SDS011;40846;44.788;20.486;2024-02-21T14:16:40;17.05;;;4.00;;